Time;durP1;ratioP1;P1;durP2;ratioP2;P2;SDS_P1;SDS_P2;PMS_P1;PMS_P2;Temp;Humidity;BMP_temperature;BMP_pressure;BME280_temperature;BME280_humidity;BME280_pressure;Samples;Min_cycle;Max_cycle;Signal;HPM_P1;HPM_P2
2022/04/21 00:00:12;;;;;;;9.38;5.75;;;;;;;;;;5094199;28;20056;-67
2022/04/21 00:02:38;;;;;;;9.15;6.43;;;;;;;;;;5084910;28;20052;-67
2022/04/21 00:05:05;;;;;;;9.55;5.70;;;;;;;;;;5095548;28;20053;-67
2022/04/21 00:07:31;;;;;;;7.93;5.80;;;;;;;;;;5095246;28;20048;-67
2022/04/21 00:09:58;;;;;;;7.63;6.10;;;;;;;;;;5097877;27;20057;-67
2022/04/21 00:12:24;;;;;;;7.85;6.03;;;;;;;;;;5095183;28;20052;-67
2022/04/21 00:14:50;;;;;;;7.20;6.43;;;;;;;;;;5095148;28;20059;-67
2022/04/21 00:17:16;;;;;;;9.82;6.45;;;;;;;;;;5093735;28;20064;-67
2022/04/21 00:19:43;;;;;;;6.82;5.55;;;;;;;;;;5095685;28;20059;-68
2022/04/21 00:24:54;;;;;;;9.25;5.45;;;;;;;;;;5095498;28;20063;-67
2022/04/21 00:27:20;;;;;;;6.55;5.82;;;;;;;;;;5093068;28;20048;-67
2022/04/21 00:29:46;;;;;;;9.85;6.30;;;;;;;;;;5093697;28;20053;-66
2022/04/21 00:32:13;;;;;;;10.85;6.60;;;;;;;;;;5094887;28;20516;-66
2022/04/21 00:34:39;;;;;;;7.85;6.30;;;;;;;;;;5102051;28;20052;-66
2022/04/21 00:37:05;;;;;;;7.40;6.15;;;;;;;;;;5105618;27;20101;-66
2022/04/21 00:39:32;;;;;;;8.52;6.20;;;;;;;;;;5093533;28;20045;-66
2022/04/21 00:41:59;;;;;;;7.75;6.10;;;;;;;;;;5094495;28;20052;-66
2022/04/21 00:44:26;;;;;;;12.68;6.60;;;;;;;;;;5095132;28;20053;-67
2022/04/21 00:46:53;;;;;;;8.50;5.93;;;;;;;;;;5095010;28;20053;-67
2022/04/21 00:49:21;;;;;;;9.70;5.90;;;;;;;;;;5091925;28;20049;-67
2022/04/21 00:51:50;;;;;;;8.82;6.30;;;;;;;;;;5095576;28;20063;-67
2022/04/21 00:54:17;;;;;;;10.63;6.05;;;;;;;;;;5093842;28;20055;-67
2022/04/21 00:56:44;;;;;;;8.48;6.35;;;;;;;;;;5095094;28;20052;-67
2022/04/21 00:59:11;;;;;;;10.48;5.65;;;;;;;;;;5094757;28;20055;-67
2022/04/21 01:04:23;;;;;;;8.15;6.05;;;;;;;;;;5093348;28;20521;-67
2022/04/21 01:06:51;;;;;;;7.13;6.38;;;;;;;;;;5094840;28;20053;-67
2022/04/21 01:09:17;;;;;;;8.77;6.68;;;;;;;;;;5094279;28;20067;-67
2022/04/21 01:11:44;;;;;;;9.10;6.45;;;;;;;;;;5094202;28;20063;-67
2022/04/21 01:14:12;;;;;;;10.13;5.90;;;;;;;;;;5093792;28;20057;-67
2022/04/21 01:16:38;;;;;;;10.30;6.00;;;;;;;;;;5095222;28;20074;-67
2022/04/21 01:19:04;;;;;;;10.30;5.80;;;;;;;;;;5099219;28;20496;-67
2022/04/21 01:21:31;;;;;;;8.48;5.85;;;;;;;;;;5094783;28;20052;-67
2022/04/21 01:23:57;;;;;;;8.82;5.70;;;;;;;;;;5093916;28;20503;-67
2022/04/21 01:26:27;;;;;;;10.80;6.30;;;;;;;;;;5094083;28;20053;-67
2022/04/21 01:28:54;;;;;;;7.35;6.18;;;;;;;;;;5093693;28;20056;-67
2022/04/21 01:31:22;;;;;;;8.90;6.40;;;;;;;;;;5096089;28;20053;-67
2022/04/21 01:33:48;;;;;;;6.65;5.47;;;;;;;;;;5091519;28;20566;-66
2022/04/21 01:36:14;;;;;;;7.20;5.60;;;;;;;;;;5094676;27;20063;-67
2022/04/21 01:41:27;;;;;;;8.23;5.33;;;;;;;;;;5093519;28;20057;-66
2022/04/21 01:43:53;;;;;;;11.45;5.97;;;;;;;;;;5094121;28;20053;-67
2022/04/21 01:46:20;;;;;;;8.25;6.00;;;;;;;;;;5094619;28;20503;-67
2022/04/21 01:48:46;;;;;;;8.55;6.57;;;;;;;;;;5092380;28;20059;-67
2022/04/21 01:51:12;;;;;;;8.10;5.70;;;;;;;;;;5094590;28;20057;-66
2022/04/21 01:53:38;;;;;;;7.35;6.63;;;;;;;;;;5093896;28;20053;-67
2022/04/21 01:56:05;;;;;;;8.82;5.97;;;;;;;;;;5088133;28;20057;-67
2022/04/21 01:58:31;;;;;;;9.38;6.30;;;;;;;;;;5093257;28;20055;-67
2022/04/21 02:00:57;;;;;;;8.50;6.68;;;;;;;;;;5092245;28;20409;-67
2022/04/21 02:03:23;;;;;;;7.93;6.10;;;;;;;;;;5093359;28;20048;-67
2022/04/21 02:05:50;;;;;;;8.05;6.65;;;;;;;;;;5094050;28;20511;-67
2022/04/21 02:08:16;;;;;;;7.80;6.38;;;;;;;;;;5093751;28;20545;-68
2022/04/21 02:10:42;;;;;;;9.93;6.32;;;;;;;;;;5094077;28;20439;-67
2022/04/21 02:13:08;;;;;;;8.57;6.60;;;;;;;;;;5093690;28;20480;-67
2022/04/21 02:15:35;;;;;;;9.40;7.18;;;;;;;;;;5093434;28;20052;-67
2022/04/21 02:18:01;;;;;;;9.52;7.25;;;;;;;;;;5094088;28;20095;-66
2022/04/21 02:20:28;;;;;;;10.55;6.50;;;;;;;;;;5094039;28;20053;-67
2022/04/21 02:22:54;;;;;;;8.05;6.35;;;;;;;;;;5092403;28;20429;-67
2022/04/21 02:25:20;;;;;;;8.40;6.25;;;;;;;;;;5091493;28;21924;-67
2022/04/21 02:27:47;;;;;;;11.25;6.45;;;;;;;;;;5093076;28;20053;-67
2022/04/21 02:30:15;;;;;;;10.35;6.85;;;;;;;;;;5093355;28;20459;-67
2022/04/21 02:32:42;;;;;;;9.43;6.82;;;;;;;;;;5091253;28;20139;-67
2022/04/21 02:35:10;;;;;;;9.68;7.00;;;;;;;;;;5093220;28;20091;-67
2022/04/21 02:37:37;;;;;;;10.65;6.95;;;;;;;;;;5094220;28;20061;-67
2022/04/21 02:40:05;;;;;;;8.60;6.28;;;;;;;;;;5094246;28;20048;-67
2022/04/21 02:42:31;;;;;;;8.65;6.72;;;;;;;;;;5094191;28;20057;-67
2022/04/21 02:44:58;;;;;;;12.80;7.22;;;;;;;;;;5093630;28;20535;-67
2022/04/21 02:47:24;;;;;;;7.80;6.55;;;;;;;;;;5092370;28;20059;-67
2022/04/21 02:49:52;;;;;;;8.52;6.18;;;;;;;;;;5092480;28;20083;-67
2022/04/21 02:52:19;;;;;;;9.23;6.60;;;;;;;;;;5093386;28;20048;-67
2022/04/21 02:57:30;;;;;;;10.70;6.70;;;;;;;;;;5095217;28;20058;-66
2022/04/21 02:59:57;;;;;;;10.13;6.82;;;;;;;;;;5090533;28;20056;-67
2022/04/21 03:02:25;;;;;;;8.48;6.82;;;;;;;;;;5092974;28;20056;-67
2022/04/21 03:04:52;;;;;;;9.45;6.78;;;;;;;;;;5093749;28;20530;-67
2022/04/21 03:07:22;;;;;;;8.52;6.53;;;;;;;;;;5092671;28;20089;-66
2022/04/21 03:09:49;;;;;;;14.43;6.68;;;;;;;;;;5091619;28;20059;-67
2022/04/21 03:12:16;;;;;;;9.90;6.75;;;;;;;;;;5092603;28;20061;-67
2022/04/21 03:14:42;;;;;;;9.95;6.28;;;;;;;;;;5095671;28;20052;-67
2022/04/21 03:17:09;;;;;;;8.02;6.45;;;;;;;;;;5095538;28;20052;-67
2022/04/21 03:19:36;;;;;;;9.40;6.28;;;;;;;;;;5096076;28;20121;-66
2022/04/21 03:24:48;;;;;;;12.03;6.70;;;;;;;;;;5095692;28;20496;-66
2022/04/21 03:27:15;;;;;;;9.57;6.50;;;;;;;;;;5095098;28;20064;-66
2022/04/21 03:29:41;;;;;;;10.27;6.95;;;;;;;;;;5099120;28;20407;-67
2022/04/21 03:32:13;;;;;;;8.75;6.07;;;;;;;;;;5094769;28;20060;-67
2022/04/21 03:34:40;;;;;;;9.32;6.13;;;;;;;;;;5095785;28;20127;-67
2022/04/21 03:37:07;;;;;;;9.65;6.82;;;;;;;;;;5095038;28;20151;-67
2022/04/21 03:39:35;;;;;;;7.60;6.68;;;;;;;;;;5094374;28;20055;-66
2022/04/21 03:42:02;;;;;;;9.95;6.30;;;;;;;;;;5096851;28;20055;-67
2022/04/21 03:44:29;;;;;;;9.32;6.18;;;;;;;;;;5095832;28;20518;-66
2022/04/21 03:46:57;;;;;;;10.07;6.95;;;;;;;;;;5096711;28;20067;-67
2022/04/21 03:49:27;;;;;;;8.43;6.50;;;;;;;;;;5095362;28;20514;-66
2022/04/21 03:51:54;;;;;;;12.15;6.97;;;;;;;;;;5096054;28;20083;-67
2022/04/21 03:54:22;;;;;;;8.38;6.88;;;;;;;;;;5098280;28;20056;-66
2022/04/21 03:56:49;;;;;;;10.18;6.32;;;;;;;;;;5096310;28;20052;-67
2022/04/21 03:59:19;;;;;;;8.93;7.28;;;;;;;;;;5097049;28;20056;-67
2022/04/21 04:01:45;;;;;;;8.23;6.75;;;;;;;;;;5095478;28;20056;-67
2022/04/21 04:04:12;;;;;;;9.35;7.60;;;;;;;;;;5095657;28;20139;-66
2022/04/21 04:12:10;;;;;;;10.43;6.97;;;;;;;;;;5103997;28;20060;-66
2022/04/21 04:14:37;;;;;;;9.05;6.95;;;;;;;;;;5098444;27;20075;-66
2022/04/21 04:17:05;;;;;;;10.65;7.20;;;;;;;;;;5098174;28;20048;-67
2022/04/21 04:19:35;;;;;;;9.45;6.95;;;;;;;;;;5096287;28;20048;-67
2022/04/21 04:22:02;;;;;;;8.35;6.90;;;;;;;;;;5095074;28;20074;-67
2022/04/21 04:24:28;;;;;;;11.65;7.47;;;;;;;;;;5093990;28;20138;-66
2022/04/21 04:26:55;;;;;;;8.10;7.13;;;;;;;;;;5099358;28;20486;-67
2022/04/21 04:29:25;;;;;;;10.73;7.18;;;;;;;;;;5093760;28;20052;-67
2022/04/21 04:32:00;;;;;;;11.02;6.60;;;;;;;;;;5095391;28;20561;-67
2022/04/21 04:34:27;;;;;;;12.10;7.18;;;;;;;;;;5091157;28;20086;-67
2022/04/21 04:36:53;;;;;;;9.25;7.38;;;;;;;;;;5093886;28;20075;-67
2022/04/21 04:39:19;;;;;;;7.53;6.45;;;;;;;;;;5094598;28;20048;-67
2022/04/21 04:44:31;;;;;;;8.17;6.23;;;;;;;;;;5095139;28;20048;-67
2022/04/21 04:46:57;;;;;;;10.68;7.13;;;;;;;;;;5094423;28;20052;-67
2022/04/21 04:49:24;;;;;;;12.77;6.88;;;;;;;;;;5093322;28;20053;-67
2022/04/21 04:51:51;;;;;;;14.45;7.32;;;;;;;;;;5095480;28;20518;-67
2022/04/21 04:54:18;;;;;;;9.40;6.30;;;;;;;;;;5095135;28;20057;-67
2022/04/21 04:56:45;;;;;;;11.05;6.80;;;;;;;;;;5094252;28;20052;-67
2022/04/21 04:59:11;;;;;;;9.77;7.38;;;;;;;;;;5094933;28;20048;-67
2022/04/21 05:01:42;;;;;;;9.63;6.80;;;;;;;;;;5092318;28;20057;-67
2022/04/21 05:04:09;;;;;;;18.13;6.78;;;;;;;;;;5095560;28;20438;-67
2022/04/21 05:06:37;;;;;;;9.10;6.63;;;;;;;;;;5093835;28;20051;-67
2022/04/21 05:09:04;;;;;;;9.93;6.85;;;;;;;;;;5093773;28;20064;-67
2022/04/21 05:11:30;;;;;;;8.70;6.63;;;;;;;;;;5093793;28;20059;-67
2022/04/21 05:13:56;;;;;;;8.70;6.80;;;;;;;;;;5094544;28;20423;-67
2022/04/21 05:16:22;;;;;;;10.00;7.72;;;;;;;;;;5092105;28;20048;-67
2022/04/21 05:18:49;;;;;;;9.20;7.20;;;;;;;;;;5095144;28;20057;-67
2022/04/21 05:21:17;;;;;;;6.97;5.97;;;;;;;;;;5092298;28;20071;-67
2022/04/21 05:23:44;;;;;;;9.55;6.63;;;;;;;;;;5094878;28;20057;-67
2022/04/21 05:26:11;;;;;;;11.77;7.18;;;;;;;;;;5094863;28;20051;-67
2022/04/21 05:28:37;;;;;;;10.85;6.95;;;;;;;;;;5091264;28;20052;-67
2022/04/21 05:31:07;;;;;;;8.90;6.93;;;;;;;;;;5093660;28;20526;-67
2022/04/21 05:33:35;;;;;;;8.20;6.30;;;;;;;;;;5091717;28;20537;-66
2022/04/21 05:36:01;;;;;;;10.30;6.00;;;;;;;;;;5086891;28;20055;-67
2022/04/21 05:38:28;;;;;;;6.90;5.57;;;;;;;;;;5088379;28;20174;-66
2022/04/21 05:40:55;;;;;;;6.68;5.45;;;;;;;;;;5094084;28;20053;-66
2022/04/21 05:43:21;;;;;;;6.47;5.32;;;;;;;;;;5104279;28;20163;-66
2022/04/21 05:45:48;;;;;;;14.57;5.85;;;;;;;;;;5094070;28;20056;-67
2022/04/21 05:48:15;;;;;;;9.18;5.60;;;;;;;;;;5092107;28;20048;-66
2022/04/21 05:50:43;;;;;;;12.30;6.93;;;;;;;;;;5088051;28;20048;-67
2022/04/21 05:53:14;;;;;;;8.50;5.78;;;;;;;;;;5085631;28;20059;-67
2022/04/21 05:55:40;;;;;;;6.57;5.53;;;;;;;;;;5103456;28;20423;-67
2022/04/21 05:58:06;;;;;;;9.02;5.40;;;;;;;;;;5093602;28;20052;-67
2022/04/21 06:00:32;;;;;;;9.23;5.45;;;;;;;;;;5088654;28;20057;-67
2022/04/21 06:02:59;;;;;;;6.85;5.65;;;;;;;;;;5090125;28;20060;-67
2022/04/21 06:05:25;;;;;;;10.35;5.18;;;;;;;;;;5093582;28;20057;-67
2022/04/21 06:07:51;;;;;;;12.60;6.90;;;;;;;;;;5093566;28;20059;-66
2022/04/21 06:10:18;;;;;;;10.27;5.28;;;;;;;;;;5092839;28;20052;-66
2022/04/21 06:12:44;;;;;;;6.57;4.85;;;;;;;;;;5093560;28;20514;-66
2022/04/21 06:15:10;;;;;;;11.13;6.15;;;;;;;;;;5091254;28;20058;-66
2022/04/21 06:17:36;;;;;;;5.80;4.88;;;;;;;;;;5087569;28;20061;-66
2022/04/21 06:20:04;;;;;;;9.30;4.68;;;;;;;;;;5088113;28;20059;-66
2022/04/21 06:22:30;;;;;;;8.32;4.75;;;;;;;;;;5092436;28;20052;-66
2022/04/21 06:24:57;;;;;;;8.07;4.90;;;;;;;;;;5093038;28;20056;-68
2022/04/21 06:27:23;;;;;;;8.98;4.88;;;;;;;;;;5093171;28;20052;-67
2022/04/21 06:29:49;;;;;;;10.48;5.20;;;;;;;;;;5092325;28;20056;-67
2022/04/21 06:32:15;;;;;;;7.88;4.93;;;;;;;;;;5079762;28;20065;-66
2022/04/21 06:34:42;;;;;;;6.38;4.88;;;;;;;;;;5089757;28;20060;-67
2022/04/21 06:37:08;;;;;;;10.13;4.85;;;;;;;;;;5093493;28;20056;-68
2022/04/21 06:39:34;;;;;;;6.30;4.80;;;;;;;;;;5092351;28;20047;-66
2022/04/21 06:42:01;;;;;;;8.60;4.32;;;;;;;;;;5092451;28;20055;-67
2022/04/21 06:49:58;;;;;;;4.78;4.32;;;;;;;;;;5091281;28;20052;-66
2022/04/21 06:52:25;;;;;;;10.57;5.03;;;;;;;;;;5078802;28;20101;-65
2022/04/21 06:54:52;;;;;;;7.15;5.43;;;;;;;;;;5091312;28;20052;-66
2022/04/21 06:57:19;;;;;;;9.25;4.72;;;;;;;;;;5092377;28;20060;-66
2022/04/21 06:59:45;;;;;;;6.95;5.05;;;;;;;;;;5090424;28;20055;-66
2022/04/21 07:02:12;;;;;;;5.95;4.25;;;;;;;;;;5093160;28;20059;-67
2022/04/21 07:04:39;;;;;;;7.90;5.20;;;;;;;;;;5091460;28;20416;-67
2022/04/21 07:07:05;;;;;;;8.82;5.18;;;;;;;;;;5092575;28;20136;-66
2022/04/21 07:09:32;;;;;;;7.18;4.45;;;;;;;;;;5091640;28;20500;-66
2022/04/21 07:11:59;;;;;;;6.82;4.55;;;;;;;;;;5091137;28;20052;-66
2022/04/21 07:14:25;;;;;;;6.78;4.13;;;;;;;;;;5090769;28;20056;-65
2022/04/21 07:16:51;;;;;;;7.20;4.65;;;;;;;;;;5087550;28;20053;-68
2022/04/21 07:19:18;;;;;;;8.20;5.05;;;;;;;;;;5085514;28;20083;-66
2022/04/21 07:21:44;;;;;;;11.23;4.57;;;;;;;;;;5097905;28;20068;-69
2022/04/21 07:24:10;;;;;;;6.70;4.15;;;;;;;;;;5088692;28;20055;-69
2022/04/21 07:26:36;;;;;;;4.93;4.40;;;;;;;;;;5091204;28;20049;-69
2022/04/21 07:29:03;;;;;;;11.73;4.90;;;;;;;;;;5092346;28;20056;-69
2022/04/21 07:31:29;;;;;;;16.75;4.75;;;;;;;;;;5091032;28;20148;-68
2022/04/21 07:33:56;;;;;;;6.90;4.90;;;;;;;;;;5091192;28;20048;-67
2022/04/21 07:36:23;;;;;;;5.22;4.72;;;;;;;;;;5091930;28;20084;-67
2022/04/21 07:38:49;;;;;;;6.75;4.53;;;;;;;;;;5091839;28;20048;-67
2022/04/21 07:41:17;;;;;;;13.68;5.00;;;;;;;;;;5091636;28;20424;-68
2022/04/21 07:43:44;;;;;;;6.72;4.68;;;;;;;;;;5086812;28;20135;-67
2022/04/21 07:46:10;;;;;;;10.43;5.13;;;;;;;;;;5090823;28;20149;-67
2022/04/21 07:51:21;;;;;;;9.48;5.30;;;;;;;;;;5090238;28;20508;-66
2022/04/21 07:53:47;;;;;;;8.82;4.55;;;;;;;;;;5091042;28;20048;-68
2022/04/21 07:56:16;;;;;;;6.65;4.35;;;;;;;;;;5091611;28;20053;-66
2022/04/21 07:58:43;;;;;;;15.73;6.93;;;;;;;;;;5096884;28;20051;-66
2022/04/21 08:01:09;;;;;;;7.13;4.88;;;;;;;;;;5098429;28;20067;-67
2022/04/21 08:03:37;;;;;;;8.15;4.63;;;;;;;;;;5101851;28;20052;-67
2022/04/21 08:06:04;;;;;;;5.47;4.38;;;;;;;;;;5093934;27;20131;-67
2022/04/21 08:08:30;;;;;;;5.10;3.92;;;;;;;;;;5077174;28;20057;-66
2022/04/21 08:10:57;;;;;;;6.05;4.18;;;;;;;;;;5083364;28;20049;-67
2022/04/21 08:13:24;;;;;;;6.97;4.35;;;;;;;;;;5095044;28;20061;-67
2022/04/21 08:15:53;;;;;;;4.88;3.55;;;;;;;;;;5095142;28;20096;-67
2022/04/21 08:18:19;;;;;;;7.78;3.65;;;;;;;;;;5095076;28;20048;-67
2022/04/21 08:20:46;;;;;;;4.20;3.17;;;;;;;;;;5095102;28;20058;-67
2022/04/21 08:23:13;;;;;;;4.40;2.88;;;;;;;;;;5090008;28;20048;-67
2022/04/21 08:34:24;;;;;;;2.95;2.30;;;;;;;;;;5094485;28;20049;-68
2022/04/21 08:36:52;;;;;;;4.28;2.72;;;;;;;;;;5094767;28;20106;-67
2022/04/21 08:39:19;;;;;;;3.85;2.78;;;;;;;;;;5093939;28;20059;-66
2022/04/21 08:41:49;;;;;;;2.90;2.60;;;;;;;;;;5094350;28;20056;-66
2022/04/21 08:44:17;;;;;;;3.17;2.42;;;;;;;;;;5094609;28;20529;-68
2022/04/21 08:46:45;;;;;;;3.17;2.70;;;;;;;;;;5094309;28;20048;-65
2022/04/21 08:49:13;;;;;;;4.00;2.83;;;;;;;;;;5095888;27;20057;-67
2022/04/21 08:51:40;;;;;;;4.93;2.92;;;;;;;;;;5096106;28;20060;-65
2022/04/21 08:54:06;;;;;;;5.72;2.40;;;;;;;;;;5097011;28;20075;-65
2022/04/21 08:56:32;;;;;;;6.63;2.45;;;;;;;;;;5094390;28;20143;-66
2022/04/21 08:58:59;;;;;;;2.90;2.15;;;;;;;;;;5089129;28;20052;-66
2022/04/21 09:01:25;;;;;;;2.70;2.50;;;;;;;;;;5086742;28;20494;-66
2022/04/21 09:03:52;;;;;;;2.72;2.15;;;;;;;;;;5084409;28;20052;-66
2022/04/21 09:06:20;;;;;;;4.07;2.33;;;;;;;;;;5085882;28;20088;-67
2022/04/21 09:08:48;;;;;;;8.63;2.00;;;;;;;;;;5089736;28;20063;-66
2022/04/21 09:11:15;;;;;;;5.13;2.10;;;;;;;;;;5110560;27;20067;-66
2022/04/21 09:13:44;;;;;;;8.05;1.92;;;;;;;;;;5096712;27;20047;-66
2022/04/21 09:16:11;;;;;;;5.32;2.10;;;;;;;;;;5114047;28;20056;-66
2022/04/21 09:18:41;;;;;;;1.92;1.60;;;;;;;;;;5097742;27;20127;-66
2022/04/21 09:21:08;;;;;;;3.20;1.50;;;;;;;;;;5093958;28;20056;-67
2022/04/21 09:23:34;;;;;;;4.63;2.20;;;;;;;;;;5093776;28;20059;-66
2022/04/21 09:26:11;;;;;;;2.70;1.98;;;;;;;;;;5094256;28;20044;-67
2022/04/21 09:28:51;;;;;;;7.60;1.98;;;;;;;;;;5093017;28;20064;-67
2022/04/21 09:31:18;;;;;;;3.58;1.95;;;;;;;;;;5073582;28;20061;-66
2022/04/21 09:33:45;;;;;;;2.35;1.80;;;;;;;;;;5084926;28;20045;-65
2022/04/21 09:36:11;;;;;;;3.17;1.98;;;;;;;;;;5106693;28;20053;-66
2022/04/21 09:38:38;;;;;;;3.13;2.00;;;;;;;;;;5093535;28;20055;-66
2022/04/21 09:41:15;;;;;;;5.63;2.13;;;;;;;;;;5093277;28;20053;-65
2022/04/21 09:43:42;;;;;;;6.07;2.42;;;;;;;;;;5092932;28;20063;-65
2022/04/21 09:46:12;;;;;;;3.15;2.25;;;;;;;;;;5094998;28;20523;-67
2022/04/21 09:48:38;;;;;;;4.68;2.42;;;;;;;;;;5113466;27;20052;-66
2022/04/21 09:51:11;;;;;;;3.35;2.00;;;;;;;;;;5113671;27;20063;-66
2022/04/21 09:53:51;;;;;;;3.08;2.40;;;;;;;;;;5109991;28;20052;-67
2022/04/21 09:56:27;;;;;;;3.67;2.20;;;;;;;;;;5093084;28;20049;-66
2022/04/21 09:58:53;;;;;;;2.63;1.90;;;;;;;;;;5092540;28;20048;-66
2022/04/21 10:01:19;;;;;;;2.70;2.17;;;;;;;;;;5092857;28;20052;-67
2022/04/21 10:03:46;;;;;;;3.28;1.95;;;;;;;;;;5092730;28;20169;-66
2022/04/21 10:06:13;;;;;;;4.65;2.00;;;;;;;;;;5092233;28;20048;-66
2022/04/21 10:08:41;;;;;;;6.03;1.98;;;;;;;;;;5092742;28;20059;-65
2022/04/21 10:11:09;;;;;;;3.63;2.38;;;;;;;;;;5090039;27;20060;-65
2022/04/21 10:13:35;;;;;;;2.38;1.98;;;;;;;;;;5084411;28;20055;-66
2022/04/21 10:16:02;;;;;;;8.48;2.10;;;;;;;;;;5090840;28;20053;-68
2022/04/21 10:18:29;;;;;;;2.50;1.80;;;;;;;;;;5092952;28;20474;-66
2022/04/21 10:20:56;;;;;;;2.17;1.73;;;;;;;;;;5091410;28;20488;-66
2022/04/21 10:23:23;;;;;;;2.35;2.03;;;;;;;;;;5092781;28;20063;-67
2022/04/21 10:26:00;;;;;;;3.30;2.10;;;;;;;;;;5092690;28;20110;-67
2022/04/21 10:28:50;;;;;;;2.40;2.00;;;;;;;;;;5072452;28;20510;-66
2022/04/21 10:31:35;;;;;;;2.17;1.90;;;;;;;;;;5085312;28;20074;-67
2022/04/21 10:34:03;;;;;;;4.28;1.80;;;;;;;;;;5092464;28;20053;-67
2022/04/21 10:36:37;;;;;;;9.18;2.40;;;;;;;;;;5092125;28;20067;-67
2022/04/21 10:39:23;;;;;;;2.65;1.95;;;;;;;;;;5092791;28;20064;-67
2022/04/21 10:42:05;;;;;;;5.88;2.40;;;;;;;;;;5093191;28;20045;-67
2022/04/21 10:44:39;;;;;;;3.45;2.42;;;;;;;;;;5090975;28;20057;-65
2022/04/21 10:47:24;;;;;;;2.88;2.50;;;;;;;;;;5092155;28;20071;-68
2022/04/21 10:49:57;;;;;;;2.97;2.37;;;;;;;;;;5092352;28;20136;-68
2022/04/21 10:57:47;;;;;;;3.30;2.80;;;;;;;;;;5090487;28;20049;-68
2022/04/21 11:00:30;;;;;;;4.53;2.80;;;;;;;;;;5089110;28;20072;-65
2022/04/21 11:03:05;;;;;;;4.85;2.40;;;;;;;;;;5089480;28;20502;-65
2022/04/21 11:05:33;;;;;;;3.10;2.78;;;;;;;;;;5091768;28;20054;-65
2022/04/21 11:08:04;;;;;;;19.20;2.83;;;;;;;;;;5091595;28;20055;-65
2022/04/21 11:10:36;;;;;;;5.82;2.20;;;;;;;;;;5091448;28;20144;-65
2022/04/21 11:13:04;;;;;;;2.20;2.00;;;;;;;;;;5091312;28;20086;-66
2022/04/21 11:15:34;;;;;;;2.75;2.40;;;;;;;;;;5090803;28;20052;-66
2022/04/21 11:18:01;;;;;;;2.30;2.10;;;;;;;;;;5089973;28;20057;-65
2022/04/21 11:20:27;;;;;;;2.63;2.42;;;;;;;;;;5090856;28;20106;-65
2022/04/21 11:22:54;;;;;;;3.10;2.40;;;;;;;;;;5091850;28;20061;-66
2022/04/21 11:25:20;;;;;;;5.65;2.55;;;;;;;;;;5091258;28;20090;-65
2022/04/21 11:27:47;;;;;;;3.60;2.30;;;;;;;;;;5091471;28;20067;-65
2022/04/21 11:30:15;;;;;;;4.38;2.53;;;;;;;;;;5091116;28;20458;-67
2022/04/21 11:32:52;;;;;;;3.60;2.30;;;;;;;;;;5090557;28;20052;-68
2022/04/21 11:35:21;;;;;;;5.15;2.10;;;;;;;;;;5093924;28;20144;-68
2022/04/21 11:37:54;;;;;;;4.80;2.78;;;;;;;;;;5094502;28;20512;-68
2022/04/21 11:40:23;;;;;;;4.88;2.50;;;;;;;;;;5094876;28;20053;-66
2022/04/21 11:42:50;;;;;;;2.78;2.28;;;;;;;;;;5094086;28;20055;-65
2022/04/21 11:45:20;;;;;;;3.90;2.35;;;;;;;;;;5094539;28;20062;-67
2022/04/21 11:47:46;;;;;;;2.50;2.17;;;;;;;;;;5093780;28;20049;-69
2022/04/21 11:50:19;;;;;;;6.03;2.40;;;;;;;;;;5095639;28;20476;-67
2022/04/21 11:52:47;;;;;;;6.78;2.08;;;;;;;;;;5099255;28;20052;-68
2022/04/21 11:55:16;;;;;;;2.63;1.83;;;;;;;;;;5106689;27;20502;-70
2022/04/21 11:57:43;;;;;;;7.82;2.20;;;;;;;;;;5094365;28;20130;-68
2022/04/21 12:00:10;;;;;;;2.47;1.90;;;;;;;;;;5094508;28;20075;-68
2022/04/21 12:08:07;;;;;;;2.85;1.90;;;;;;;;;;5092702;28;20057;-66
2022/04/21 12:10:35;;;;;;;1.98;1.77;;;;;;;;;;5090262;28;20048;-69
2022/04/21 12:13:02;;;;;;;3.58;1.90;;;;;;;;;;5091322;28;20148;-67
2022/04/21 12:15:29;;;;;;;5.65;1.60;;;;;;;;;;5089336;27;20059;-67
2022/04/21 12:17:59;;;;;;;5.50;1.38;;;;;;;;;;5094743;28;20058;-67
2022/04/21 12:20:26;;;;;;;2.88;1.50;;;;;;;;;;5089113;28;20115;-67
2022/04/21 12:22:52;;;;;;;4.38;1.40;;;;;;;;;;5094287;28;20048;-67
2022/04/21 12:25:18;;;;;;;3.38;1.70;;;;;;;;;;5093294;28;20049;-67
2022/04/21 12:27:45;;;;;;;8.70;1.80;;;;;;;;;;5094735;28;20071;-66
2022/04/21 12:30:12;;;;;;;7.30;1.50;;;;;;;;;;5089647;28;20063;-67
2022/04/21 12:32:39;;;;;;;1.92;1.30;;;;;;;;;;5088738;28;20082;-66
2022/04/21 12:35:08;;;;;;;4.35;1.27;;;;;;;;;;5087931;28;20048;-66
2022/04/21 12:37:34;;;;;;;6.15;1.58;;;;;;;;;;5093210;28;20137;-66
2022/04/21 12:40:02;;;;;;;1.40;1.30;;;;;;;;;;5089175;28;20489;-66
2022/04/21 12:42:47;;;;;;;1.40;1.30;;;;;;;;;;5092888;28;20056;-66
2022/04/21 12:45:15;;;;;;;2.22;1.60;;;;;;;;;;5092221;28;20048;-64
2022/04/21 12:47:42;;;;;;;6.15;1.73;;;;;;;;;;5092999;28;20158;-65
2022/04/21 12:50:30;;;;;;;3.70;1.88;;;;;;;;;;5092611;28;20162;-66
2022/04/21 12:52:57;;;;;;;2.80;2.13;;;;;;;;;;5093221;28;20538;-66
2022/04/21 12:55:30;;;;;;;4.72;1.65;;;;;;;;;;5092822;28;20091;-65
2022/04/21 12:58:06;;;;;;;4.35;1.70;;;;;;;;;;5093295;28;20085;-65
2022/04/21 13:00:33;;;;;;;2.17;1.67;;;;;;;;;;5087812;28;20061;-68
2022/04/21 13:03:00;;;;;;;3.70;1.55;;;;;;;;;;5111227;28;20052;-65
2022/04/21 13:05:26;;;;;;;2.70;1.75;;;;;;;;;;5097040;27;20056;-67
2022/04/21 13:07:53;;;;;;;3.22;1.65;;;;;;;;;;5093490;28;20049;-63
2022/04/21 13:10:21;;;;;;;6.85;2.20;;;;;;;;;;5092964;28;20053;-65
2022/04/21 13:12:48;;;;;;;4.70;2.05;;;;;;;;;;5092978;28;20056;-65
2022/04/21 13:15:14;;;;;;;3.78;1.73;;;;;;;;;;5093129;28;20057;-65
2022/04/21 13:17:41;;;;;;;3.42;1.77;;;;;;;;;;5093931;28;20047;-67
2022/04/21 13:20:08;;;;;;;4.50;2.10;;;;;;;;;;5091235;28;20057;-64
2022/04/21 13:22:34;;;;;;;2.25;2.05;;;;;;;;;;5093511;28;20053;-64
2022/04/21 13:25:01;;;;;;;3.88;2.00;;;;;;;;;;5092707;28;20048;-64
2022/04/21 13:27:29;;;;;;;2.58;2.38;;;;;;;;;;5092856;28;20055;-64
2022/04/21 13:29:55;;;;;;;3.65;1.77;;;;;;;;;;5091169;27;20051;-65
2022/04/21 13:35:07;;;;;;;3.50;2.13;;;;;;;;;;5093394;28;20056;-65
2022/04/21 13:37:40;;;;;;;2.65;2.30;;;;;;;;;;5110391;28;20048;-65
2022/04/21 13:40:08;;;;;;;2.58;2.00;;;;;;;;;;5098276;27;20048;-65
2022/04/21 13:42:34;;;;;;;5.75;2.47;;;;;;;;;;5092457;28;20052;-65
2022/04/21 13:45:00;;;;;;;9.65;2.33;;;;;;;;;;5092721;28;20053;-65
2022/04/21 13:47:46;;;;;;;3.15;2.20;;;;;;;;;;5075488;28;20488;-64
2022/04/21 13:50:13;;;;;;;7.57;2.58;;;;;;;;;;5093241;27;20044;-64
2022/04/21 13:52:41;;;;;;;3.08;2.40;;;;;;;;;;5092204;28;20048;-64
2022/04/21 13:55:07;;;;;;;9.68;2.60;;;;;;;;;;5092424;28;20106;-64
2022/04/21 13:57:34;;;;;;;3.80;2.42;;;;;;;;;;5089374;28;20072;-63
2022/04/21 14:00:00;;;;;;;3.15;2.78;;;;;;;;;;5101821;28;20052;-63
2022/04/21 14:02:27;;;;;;;5.88;2.47;;;;;;;;;;5094180;28;20048;-64
2022/04/21 14:04:53;;;;;;;4.38;2.92;;;;;;;;;;5100577;27;20125;-64
2022/04/21 14:07:19;;;;;;;7.90;3.38;;;;;;;;;;5092811;28;20048;-64
2022/04/21 14:09:45;;;;;;;5.20;3.10;;;;;;;;;;5092939;28;20044;-65
2022/04/21 14:12:18;;;;;;;8.27;2.90;;;;;;;;;;5095119;28;20080;-65
2022/04/21 14:14:45;;;;;;;6.32;3.30;;;;;;;;;;5084003;28;20053;-64
2022/04/21 14:17:11;;;;;;;11.38;3.10;;;;;;;;;;5093967;28;20135;-64
2022/04/21 14:19:37;;;;;;;5.80;3.40;;;;;;;;;;5093833;28;20507;-64
2022/04/21 14:22:04;;;;;;;7.13;3.17;;;;;;;;;;5093117;27;20067;-64
2022/04/21 14:24:30;;;;;;;4.78;3.30;;;;;;;;;;5094131;27;20055;-65
2022/04/21 14:26:58;;;;;;;4.80;3.33;;;;;;;;;;5094280;28;20488;-65
2022/04/21 14:29:24;;;;;;;7.15;3.65;;;;;;;;;;5089521;28;20092;-65
2022/04/21 14:31:51;;;;;;;10.23;3.55;;;;;;;;;;5091942;28;20078;-66
2022/04/21 14:34:17;;;;;;;4.68;3.50;;;;;;;;;;5091216;28;20506;-66
2022/04/21 14:36:43;;;;;;;9.38;3.70;;;;;;;;;;5090865;28;20059;-66
2022/04/21 14:44:40;;;;;;;4.78;3.17;;;;;;;;;;5081358;28;20044;-65
2022/04/21 14:47:07;;;;;;;5.28;3.05;;;;;;;;;;5088303;28;20560;-66
2022/04/21 14:49:51;;;;;;;4.35;3.45;;;;;;;;;;5085088;28;20141;-67
2022/04/21 14:52:19;;;;;;;14.05;3.83;;;;;;;;;;5089409;28;20503;-65
2022/04/21 14:54:47;;;;;;;5.95;3.50;;;;;;;;;;5085409;28;20491;-64
2022/04/21 14:57:13;;;;;;;3.85;3.55;;;;;;;;;;5090023;28;20057;-65
2022/04/21 14:59:40;;;;;;;7.38;3.55;;;;;;;;;;5096489;27;20052;-65
2022/04/21 15:02:09;;;;;;;10.18;3.50;;;;;;;;;;5080419;28;20048;-64
2022/04/21 15:04:36;;;;;;;11.05;3.83;;;;;;;;;;5088379;28;20049;-65
2022/04/21 15:07:05;;;;;;;6.95;3.75;;;;;;;;;;5090883;28;20057;-64
2022/04/21 15:09:32;;;;;;;4.00;3.17;;;;;;;;;;5089665;28;20056;-66
2022/04/21 15:11:58;;;;;;;4.70;3.58;;;;;;;;;;5091602;28;20052;-65
2022/04/21 15:14:25;;;;;;;10.77;3.60;;;;;;;;;;5089513;28;20059;-65
2022/04/21 15:16:52;;;;;;;4.43;3.10;;;;;;;;;;5089595;28;20528;-65
2022/04/21 15:19:19;;;;;;;5.22;3.40;;;;;;;;;;5090828;28;20110;-64
2022/04/21 15:21:45;;;;;;;4.95;3.22;;;;;;;;;;5091535;28;20060;-64
2022/04/21 15:24:11;;;;;;;4.43;3.28;;;;;;;;;;5088509;28;20055;-64
2022/04/21 15:26:37;;;;;;;9.98;2.83;;;;;;;;;;5090295;28;20044;-64
2022/04/21 15:29:04;;;;;;;5.88;3.20;;;;;;;;;;5092027;28;20057;-64
2022/04/21 15:31:30;;;;;;;9.50;2.92;;;;;;;;;;5078466;28;20457;-65
2022/04/21 15:33:56;;;;;;;3.08;2.85;;;;;;;;;;5080061;28;20073;-65
2022/04/21 15:36:23;;;;;;;4.07;2.67;;;;;;;;;;5091331;28;20163;-64
2022/04/21 15:38:51;;;;;;;3.97;2.70;;;;;;;;;;5089682;28;20106;-65
2022/04/21 15:41:18;;;;;;;6.65;3.03;;;;;;;;;;5090017;28;20064;-66